sensor_id;sensor_type;location;lat;lon;timestamp;P1;durP1;ratioP1;P2;durP2;ratioP2
56401;SDS011;42299;35.160;26.100;2022-09-02T00:00:06;16.08;;;6.70;;
56401;SDS011;42299;35.160;26.100;2022-09-02T00:01:33;14.25;;;7.18;;
56401;SDS011;42299;35.160;26.100;2022-09-02T00:02:57;13.13;;;6.40;;
56401;SDS011;42299;35.160;26.100;2022-09-02T00:04:20;13.63;;;7.00;;
56401;SDS011;42299;35.160;26.100;2022-09-02T00:05:43;11.52;;;6.15;;
56401;SDS011;42299;35.160;26.100;2022-09-02T00:08:28;10.73;;;6.65;;
56401;SDS011;42299;35.160;26.100;2022-09-02T00:09:51;12.18;;;7.10;;
56401;SDS011;42299;35.160;26.100;2022-09-02T00:11:15;13.10;;;6.32;;
56401;SDS011;42299;35.160;26.100;2022-09-02T00:12:38;12.77;;;6.80;;
56401;SDS011;42299;35.160;26.100;2022-09-02T00:14:02;10.82;;;5.97;;
56401;SDS011;42299;35.160;26.100;2022-09-02T00:15:27;12.77;;;6.47;;
56401;SDS011;42299;35.160;26.100;2022-09-02T00:16:50;15.25;;;6.90;;
56401;SDS011;42299;35.160;26.100;2022-09-02T00:18:12;10.30;;;6.00;;
56401;SDS011;42299;35.160;26.100;2022-09-02T00:19:36;13.13;;;6.75;;
56401;SDS011;42299;35.160;26.100;2022-09-02T00:20:59;13.52;;;6.25;;
56401;SDS011;42299;35.160;26.100;2022-09-02T00:22:20;15.25;;;6.80;;
56401;SDS011;42299;35.160;26.100;2022-09-02T00:23:43;13.27;;;6.47;;
56401;SDS011;42299;35.160;26.100;2022-09-02T00:26:28;11.48;;;6.45;;
56401;SDS011;42299;35.160;26.100;2022-09-02T00:27:49;12.10;;;6.50;;
56401;SDS011;42299;35.160;26.100;2022-09-02T00:29:12;13.80;;;6.95;;
56401;SDS011;42299;35.160;26.100;2022-09-02T00:30:36;13.75;;;6.05;;
56401;SDS011;42299;35.160;26.100;2022-09-02T00:32:00;11.82;;;6.90;;
56401;SDS011;42299;35.160;26.100;2022-09-02T00:34:44;12.80;;;6.13;;
56401;SDS011;42299;35.160;26.100;2022-09-02T00:37:29;10.95;;;6.07;;
56401;SDS011;42299;35.160;26.100;2022-09-02T00:38:51;11.27;;;7.03;;
56401;SDS011;42299;35.160;26.100;2022-09-02T00:40:14;13.02;;;6.93;;
56401;SDS011;42299;35.160;26.100;2022-09-02T00:41:36;11.07;;;6.85;;
56401;SDS011;42299;35.160;26.100;2022-09-02T00:43:00;12.65;;;7.03;;
56401;SDS011;42299;35.160;26.100;2022-09-02T00:44:25;15.25;;;6.60;;
56401;SDS011;42299;35.160;26.100;2022-09-02T00:45:49;15.38;;;6.95;;
56401;SDS011;42299;35.160;26.100;2022-09-02T00:47:13;12.15;;;6.25;;
56401;SDS011;42299;35.160;26.100;2022-09-02T00:48:36;11.20;;;6.57;;
56401;SDS011;42299;35.160;26.100;2022-09-02T00:50:00;14.10;;;7.32;;
56401;SDS011;42299;35.160;26.100;2022-09-02T00:51:26;11.95;;;6.05;;
56401;SDS011;42299;35.160;26.100;2022-09-02T00:52:55;13.77;;;7.15;;
56401;SDS011;42299;35.160;26.100;2022-09-02T00:54:21;13.55;;;6.88;;
56401;SDS011;42299;35.160;26.100;2022-09-02T00:55:47;9.93;;;6.13;;
56401;SDS011;42299;35.160;26.100;2022-09-02T00:57:11;12.20;;;6.57;;
56401;SDS011;42299;35.160;26.100;2022-09-02T00:58:38;15.52;;;6.78;;
56401;SDS011;42299;35.160;26.100;2022-09-02T01:00:05;11.65;;;7.07;;
56401;SDS011;42299;35.160;26.100;2022-09-02T01:01:33;13.93;;;6.30;;
56401;SDS011;42299;35.160;26.100;2022-09-02T01:02:55;12.52;;;6.70;;
56401;SDS011;42299;35.160;26.100;2022-09-02T01:04:20;12.93;;;6.40;;
56401;SDS011;42299;35.160;26.100;2022-09-02T01:05:44;10.77;;;6.53;;
56401;SDS011;42299;35.160;26.100;2022-09-02T01:07:07;11.52;;;6.90;;
56401;SDS011;42299;35.160;26.100;2022-09-02T01:08:31;13.73;;;6.43;;
56401;SDS011;42299;35.160;26.100;2022-09-02T01:09:56;11.13;;;6.35;;
56401;SDS011;42299;35.160;26.100;2022-09-02T01:11:19;12.65;;;6.65;;
56401;SDS011;42299;35.160;26.100;2022-09-02T01:12:41;13.73;;;6.30;;
56401;SDS011;42299;35.160;26.100;2022-09-02T01:14:04;11.20;;;6.68;;
56401;SDS011;42299;35.160;26.100;2022-09-02T01:15:29;10.93;;;6.20;;
56401;SDS011;42299;35.160;26.100;2022-09-02T01:16:54;13.57;;;6.47;;
56401;SDS011;42299;35.160;26.100;2022-09-02T01:18:20;10.65;;;6.65;;
56401;SDS011;42299;35.160;26.100;2022-09-02T01:19:49;13.30;;;6.47;;
56401;SDS011;42299;35.160;26.100;2022-09-02T01:21:13;11.82;;;6.72;;
56401;SDS011;42299;35.160;26.100;2022-09-02T01:22:39;12.25;;;7.35;;
56401;SDS011;42299;35.160;26.100;2022-09-02T01:24:01;14.07;;;7.13;;
56401;SDS011;42299;35.160;26.100;2022-09-02T01:25:26;14.95;;;7.07;;
56401;SDS011;42299;35.160;26.100;2022-09-02T01:27:05;12.40;;;6.95;;
56401;SDS011;42299;35.160;26.100;2022-09-02T01:28:28;10.25;;;6.53;;
56401;SDS011;42299;35.160;26.100;2022-09-02T01:29:54;13.13;;;7.88;;
56401;SDS011;42299;35.160;26.100;2022-09-02T01:31:18;10.98;;;6.43;;
56401;SDS011;42299;35.160;26.100;2022-09-02T01:32:41;10.00;;;6.40;;
56401;SDS011;42299;35.160;26.100;2022-09-02T01:34:03;11.70;;;6.68;;
56401;SDS011;42299;35.160;26.100;2022-09-02T01:35:26;14.05;;;6.60;;
56401;SDS011;42299;35.160;26.100;2022-09-02T01:36:48;18.15;;;7.47;;
56401;SDS011;42299;35.160;26.100;2022-09-02T01:38:12;10.35;;;6.70;;
56401;SDS011;42299;35.160;26.100;2022-09-02T01:39:34;14.15;;;7.18;;
56401;SDS011;42299;35.160;26.100;2022-09-02T01:40:57;12.07;;;6.80;;
56401;SDS011;42299;35.160;26.100;2022-09-02T01:42:19;15.60;;;6.85;;
56401;SDS011;42299;35.160;26.100;2022-09-02T01:43:42;11.23;;;7.20;;
56401;SDS011;42299;35.160;26.100;2022-09-02T01:45:04;13.82;;;7.05;;
56401;SDS011;42299;35.160;26.100;2022-09-02T01:46:28;13.90;;;7.40;;
56401;SDS011;42299;35.160;26.100;2022-09-02T01:47:50;13.52;;;7.63;;
56401;SDS011;42299;35.160;26.100;2022-09-02T01:49:13;10.40;;;6.75;;
56401;SDS011;42299;35.160;26.100;2022-09-02T01:50:35;13.40;;;7.22;;
56401;SDS011;42299;35.160;26.100;2022-09-02T01:51:58;13.00;;;7.15;;
56401;SDS011;42299;35.160;26.100;2022-09-02T01:53:22;12.50;;;7.80;;
56401;SDS011;42299;35.160;26.100;2022-09-02T01:54:45;10.90;;;7.20;;
56401;SDS011;42299;35.160;26.100;2022-09-02T01:56:08;13.85;;;7.60;;
56401;SDS011;42299;35.160;26.100;2022-09-02T01:57:31;18.38;;;7.53;;
56401;SDS011;42299;35.160;26.100;2022-09-02T01:58:53;12.55;;;6.50;;
56401;SDS011;42299;35.160;26.100;2022-09-02T02:00:16;18.38;;;7.45;;
56401;SDS011;42299;35.160;26.100;2022-09-02T02:01:38;13.70;;;6.85;;
56401;SDS011;42299;35.160;26.100;2022-09-02T02:03:01;13.35;;;7.25;;
56401;SDS011;42299;35.160;26.100;2022-09-02T02:04:24;13.60;;;7.30;;
56401;SDS011;42299;35.160;26.100;2022-09-02T02:05:49;10.63;;;6.82;;
56401;SDS011;42299;35.160;26.100;2022-09-02T02:07:14;15.18;;;7.88;;
56401;SDS011;42299;35.160;26.100;2022-09-02T02:08:40;18.17;;;8.55;;
56401;SDS011;42299;35.160;26.100;2022-09-02T02:10:03;13.10;;;7.72;;
56401;SDS011;42299;35.160;26.100;2022-09-02T02:11:30;13.55;;;7.57;;
56401;SDS011;42299;35.160;26.100;2022-09-02T02:12:53;15.60;;;7.38;;
56401;SDS011;42299;35.160;26.100;2022-09-02T02:14:16;17.02;;;7.10;;
56401;SDS011;42299;35.160;26.100;2022-09-02T02:15:42;11.70;;;7.25;;
56401;SDS011;42299;35.160;26.100;2022-09-02T02:17:05;13.80;;;8.32;;
56401;SDS011;42299;35.160;26.100;2022-09-02T02:18:26;14.45;;;7.25;;
56401;SDS011;42299;35.160;26.100;2022-09-02T02:19:50;16.27;;;7.47;;
56401;SDS011;42299;35.160;26.100;2022-09-02T02:21:13;12.82;;;7.13;;
56401;SDS011;42299;35.160;26.100;2022-09-02T02:22:34;16.00;;;7.68;;
56401;SDS011;42299;35.160;26.100;2022-09-02T02:24:00;14.73;;;8.23;;
56401;SDS011;42299;35.160;26.100;2022-09-02T02:25:23;13.38;;;7.35;;
56401;SDS011;42299;35.160;26.100;2022-09-02T02:26:48;13.60;;;7.57;;
56401;SDS011;42299;35.160;26.100;2022-09-02T02:28:12;12.23;;;7.80;;
56401;SDS011;42299;35.160;26.100;2022-09-02T02:29:36;14.43;;;8.15;;
56401;SDS011;42299;35.160;26.100;2022-09-02T02:30:58;12.73;;;7.05;;
56401;SDS011;42299;35.160;26.100;2022-09-02T02:32:21;11.35;;;7.80;;
56401;SDS011;42299;35.160;26.100;2022-09-02T02:33:43;15.75;;;7.18;;
56401;SDS011;42299;35.160;26.100;2022-09-02T02:35:07;14.45;;;7.65;;
56401;SDS011;42299;35.160;26.100;2022-09-02T02:36:30;13.57;;;7.13;;
56401;SDS011;42299;35.160;26.100;2022-09-02T02:37:53;15.85;;;7.55;;
56401;SDS011;42299;35.160;26.100;2022-09-02T02:39:19;13.07;;;8.00;;
56401;SDS011;42299;35.160;26.100;2022-09-02T02:40:40;13.30;;;8.07;;
56401;SDS011;42299;35.160;26.100;2022-09-02T02:42:03;15.35;;;7.70;;
56401;SDS011;42299;35.160;26.100;2022-09-02T02:43:25;13.45;;;7.50;;
56401;SDS011;42299;35.160;26.100;2022-09-02T02:44:49;16.58;;;7.88;;
56401;SDS011;42299;35.160;26.100;2022-09-02T02:46:11;17.40;;;7.57;;
56401;SDS011;42299;35.160;26.100;2022-09-02T02:47:33;15.07;;;6.95;;
56401;SDS011;42299;35.160;26.100;2022-09-02T02:48:58;15.80;;;7.07;;
56401;SDS011;42299;35.160;26.100;2022-09-02T02:50:21;12.32;;;7.25;;
56401;SDS011;42299;35.160;26.100;2022-09-02T02:51:43;14.68;;;6.78;;
56401;SDS011;42299;35.160;26.100;2022-09-02T02:53:05;11.60;;;7.38;;
56401;SDS011;42299;35.160;26.100;2022-09-02T02:54:29;12.07;;;6.80;;
56401;SDS011;42299;35.160;26.100;2022-09-02T02:55:52;12.18;;;7.03;;
56401;SDS011;42299;35.160;26.100;2022-09-02T02:57:15;10.25;;;6.57;;
56401;SDS011;42299;35.160;26.100;2022-09-02T03:00:03;12.10;;;7.07;;
56401;SDS011;42299;35.160;26.100;2022-09-02T03:01:28;15.13;;;7.50;;
56401;SDS011;42299;35.160;26.100;2022-09-02T03:02:53;12.07;;;7.13;;
56401;SDS011;42299;35.160;26.100;2022-09-02T03:04:17;12.80;;;7.30;;
56401;SDS011;42299;35.160;26.100;2022-09-02T03:05:39;15.32;;;7.30;;
56401;SDS011;42299;35.160;26.100;2022-09-02T03:07:02;13.80;;;7.50;;
56401;SDS011;42299;35.160;26.100;2022-09-02T03:08:26;14.23;;;7.47;;
56401;SDS011;42299;35.160;26.100;2022-09-02T03:09:51;14.20;;;6.80;;
56401;SDS011;42299;35.160;26.100;2022-09-02T03:11:14;13.77;;;7.40;;
56401;SDS011;42299;35.160;26.100;2022-09-02T03:12:38;15.55;;;7.43;;
56401;SDS011;42299;35.160;26.100;2022-09-02T03:14:00;15.85;;;7.55;;
56401;SDS011;42299;35.160;26.100;2022-09-02T03:15:23;10.88;;;6.70;;
56401;SDS011;42299;35.160;26.100;2022-09-02T03:16:47;14.00;;;7.75;;
56401;SDS011;42299;35.160;26.100;2022-09-02T03:18:10;12.35;;;7.15;;
56401;SDS011;42299;35.160;26.100;2022-09-02T03:19:33;14.07;;;6.70;;
56401;SDS011;42299;35.160;26.100;2022-09-02T03:20:55;12.70;;;7.38;;
56401;SDS011;42299;35.160;26.100;2022-09-02T03:22:17;14.43;;;7.43;;
56401;SDS011;42299;35.160;26.100;2022-09-02T03:23:40;10.90;;;7.00;;
56401;SDS011;42299;35.160;26.100;2022-09-02T03:25:05;15.48;;;7.13;;
56401;SDS011;42299;35.160;26.100;2022-09-02T03:26:28;16.27;;;7.40;;
56401;SDS011;42299;35.160;26.100;2022-09-02T03:27:52;12.77;;;7.40;;
56401;SDS011;42299;35.160;26.100;2022-09-02T03:29:14;14.15;;;7.65;;
56401;SDS011;42299;35.160;26.100;2022-09-02T03:30:38;14.27;;;7.60;;
56401;SDS011;42299;35.160;26.100;2022-09-02T03:32:01;12.38;;;7.85;;
56401;SDS011;42299;35.160;26.100;2022-09-02T03:33:24;15.23;;;6.82;;
56401;SDS011;42299;35.160;26.100;2022-09-02T03:34:46;12.88;;;6.20;;
56401;SDS011;42299;35.160;26.100;2022-09-02T03:36:17;16.45;;;7.03;;
56401;SDS011;42299;35.160;26.100;2022-09-02T03:37:43;13.60;;;6.38;;
56401;SDS011;42299;35.160;26.100;2022-09-02T03:39:06;9.77;;;6.45;;
56401;SDS011;42299;35.160;26.100;2022-09-02T03:40:31;12.38;;;7.13;;
56401;SDS011;42299;35.160;26.100;2022-09-02T03:41:55;14.27;;;7.22;;
56401;SDS011;42299;35.160;26.100;2022-09-02T03:43:18;12.52;;;6.65;;
56401;SDS011;42299;35.160;26.100;2022-09-02T03:44:39;9.82;;;6.05;;
56401;SDS011;42299;35.160;26.100;2022-09-02T03:46:02;11.30;;;7.18;;
56401;SDS011;42299;35.160;26.100;2022-09-02T03:47:24;11.88;;;6.30;;
56401;SDS011;42299;35.160;26.100;2022-09-02T03:48:48;13.98;;;6.30;;
56401;SDS011;42299;35.160;26.100;2022-09-02T03:50:11;10.70;;;5.95;;
56401;SDS011;42299;35.160;26.100;2022-09-02T03:51:38;10.02;;;6.28;;
56401;SDS011;42299;35.160;26.100;2022-09-02T03:53:02;12.77;;;6.60;;
56401;SDS011;42299;35.160;26.100;2022-09-02T03:54:26;10.27;;;6.13;;
56401;SDS011;42299;35.160;26.100;2022-09-02T03:55:51;11.52;;;6.63;;
56401;SDS011;42299;35.160;26.100;2022-09-02T03:57:14;12.93;;;7.38;;
56401;SDS011;42299;35.160;26.100;2022-09-02T03:58:38;12.68;;;6.60;;
56401;SDS011;42299;35.160;26.100;2022-09-02T04:00:00;11.88;;;6.78;;
56401;SDS011;42299;35.160;26.100;2022-09-02T04:01:24;13.70;;;6.60;;
56401;SDS011;42299;35.160;26.100;2022-09-02T04:02:47;15.10;;;7.10;;
56401;SDS011;42299;35.160;26.100;2022-09-02T04:04:11;14.20;;;7.15;;
56401;SDS011;42299;35.160;26.100;2022-09-02T04:05:33;14.20;;;7.72;;
56401;SDS011;42299;35.160;26.100;2022-09-02T04:06:57;10.70;;;6.18;;
56401;SDS011;42299;35.160;26.100;2022-09-02T04:08:21;12.57;;;6.88;;
56401;SDS011;42299;35.160;26.100;2022-09-02T04:09:45;13.27;;;6.22;;
56401;SDS011;42299;35.160;26.100;2022-09-02T04:11:10;10.27;;;6.22;;
56401;SDS011;42299;35.160;26.100;2022-09-02T04:12:36;9.55;;;6.25;;
56401;SDS011;42299;35.160;26.100;2022-09-02T04:14:00;11.27;;;6.03;;
56401;SDS011;42299;35.160;26.100;2022-09-02T04:15:23;10.73;;;5.55;;
56401;SDS011;42299;35.160;26.100;2022-09-02T04:16:47;12.88;;;6.68;;
56401;SDS011;42299;35.160;26.100;2022-09-02T04:18:10;11.43;;;6.10;;
56401;SDS011;42299;35.160;26.100;2022-09-02T04:19:31;11.65;;;5.63;;
56401;SDS011;42299;35.160;26.100;2022-09-02T04:20:57;12.40;;;6.00;;
56401;SDS011;42299;35.160;26.100;2022-09-02T04:22:20;11.50;;;6.45;;
56401;SDS011;42299;35.160;26.100;2022-09-02T04:23:42;9.35;;;5.57;;
56401;SDS011;42299;35.160;26.100;2022-09-02T04:25:06;12.05;;;6.30;;
56401;SDS011;42299;35.160;26.100;2022-09-02T04:26:32;14.52;;;6.70;;
56401;SDS011;42299;35.160;26.100;2022-09-02T04:27:54;15.45;;;7.60;;
56401;SDS011;42299;35.160;26.100;2022-09-02T04:29:17;14.10;;;7.90;;
56401;SDS011;42299;35.160;26.100;2022-09-02T04:30:42;14.15;;;9.00;;
56401;SDS011;42299;35.160;26.100;2022-09-02T04:32:06;13.05;;;7.80;;
56401;SDS011;42299;35.160;26.100;2022-09-02T04:33:28;12.52;;;7.63;;
56401;SDS011;42299;35.160;26.100;2022-09-02T04:34:50;13.73;;;6.68;;
56401;SDS011;42299;35.160;26.100;2022-09-02T04:36:14;11.85;;;6.60;;
56401;SDS011;42299;35.160;26.100;2022-09-02T04:37:39;12.15;;;5.72;;
56401;SDS011;42299;35.160;26.100;2022-09-02T04:39:02;12.75;;;7.53;;
56401;SDS011;42299;35.160;26.100;2022-09-02T04:40:27;15.23;;;9.00;;
56401;SDS011;42299;35.160;26.100;2022-09-02T04:41:52;13.18;;;8.02;;
56401;SDS011;42299;35.160;26.100;2022-09-02T04:43:16;18.95;;;10.38;;
56401;SDS011;42299;35.160;26.100;2022-09-02T04:44:40;13.15;;;6.07;;
56401;SDS011;42299;35.160;26.100;2022-09-02T04:46:03;15.20;;;6.15;;
56401;SDS011;42299;35.160;26.100;2022-09-02T04:47:25;12.48;;;6.43;;
56401;SDS011;42299;35.160;26.100;2022-09-02T04:48:49;11.88;;;5.38;;
56401;SDS011;42299;35.160;26.100;2022-09-02T04:50:11;21.13;;;7.60;;
56401;SDS011;42299;35.160;26.100;2022-09-02T04:51:51;20.50;;;10.88;;
56401;SDS011;42299;35.160;26.100;2022-09-02T04:53:15;15.32;;;10.00;;
56401;SDS011;42299;35.160;26.100;2022-09-02T04:54:37;20.30;;;12.02;;
56401;SDS011;42299;35.160;26.100;2022-09-02T04:56:02;14.73;;;5.95;;
56401;SDS011;42299;35.160;26.100;2022-09-02T04:57:25;9.98;;;5.45;;
56401;SDS011;42299;35.160;26.100;2022-09-02T04:58:49;9.90;;;5.15;;
56401;SDS011;42299;35.160;26.100;2022-09-02T05:00:13;12.02;;;6.50;;
56401;SDS011;42299;35.160;26.100;2022-09-02T05:01:38;9.82;;;6.05;;
56401;SDS011;42299;35.160;26.100;2022-09-02T05:03:07;13.18;;;6.22;;
56401;SDS011;42299;35.160;26.100;2022-09-02T05:04:31;16.90;;;8.73;;
56401;SDS011;42299;35.160;26.100;2022-09-02T05:05:57;13.45;;;8.80;;
56401;SDS011;42299;35.160;26.100;2022-09-02T05:07:19;19.20;;;11.15;;
56401;SDS011;42299;35.160;26.100;2022-09-02T05:08:42;21.77;;;10.60;;
56401;SDS011;42299;35.160;26.100;2022-09-02T05:10:06;17.92;;;8.82;;
56401;SDS011;42299;35.160;26.100;2022-09-02T05:11:35;18.55;;;9.77;;
56401;SDS011;42299;35.160;26.100;2022-09-02T05:13:00;21.42;;;11.60;;
56401;SDS011;42299;35.160;26.100;2022-09-02T05:14:24;12.73;;;7.13;;
56401;SDS011;42299;35.160;26.100;2022-09-02T05:15:48;9.32;;;4.60;;
56401;SDS011;42299;35.160;26.100;2022-09-02T05:17:11;13.85;;;6.95;;
56401;SDS011;42299;35.160;26.100;2022-09-02T05:18:38;9.75;;;4.88;;
56401;SDS011;42299;35.160;26.100;2022-09-02T05:20:00;11.43;;;5.82;;
56401;SDS011;42299;35.160;26.100;2022-09-02T05:21:26;13.38;;;6.22;;
56401;SDS011;42299;35.160;26.100;2022-09-02T05:22:50;16.92;;;8.13;;
56401;SDS011;42299;35.160;26.100;2022-09-02T05:24:14;17.77;;;9.18;;
56401;SDS011;42299;35.160;26.100;2022-09-02T05:25:36;11.93;;;6.93;;
56401;SDS011;42299;35.160;26.100;2022-09-02T05:26:59;13.15;;;5.95;;
56401;SDS011;42299;35.160;26.100;2022-09-02T05:28:24;11.13;;;5.13;;
56401;SDS011;42299;35.160;26.100;2022-09-02T05:29:47;9.30;;;5.47;;
56401;SDS011;42299;35.160;26.100;2022-09-02T05:31:14;8.15;;;4.80;;
56401;SDS011;42299;35.160;26.100;2022-09-02T05:32:38;10.23;;;5.03;;
56401;SDS011;42299;35.160;26.100;2022-09-02T05:34:02;12.70;;;6.53;;
56401;SDS011;42299;35.160;26.100;2022-09-02T05:35:24;11.48;;;5.15;;
56401;SDS011;42299;35.160;26.100;2022-09-02T05:36:47;9.00;;;5.22;;
56401;SDS011;42299;35.160;26.100;2022-09-02T05:38:11;13.05;;;8.27;;
56401;SDS011;42299;35.160;26.100;2022-09-02T05:39:34;15.73;;;10.23;;
56401;SDS011;42299;35.160;26.100;2022-09-02T05:40:55;13.35;;;7.47;;
56401;SDS011;42299;35.160;26.100;2022-09-02T05:42:19;17.05;;;8.63;;
56401;SDS011;42299;35.160;26.100;2022-09-02T05:43:46;14.95;;;8.93;;
56401;SDS011;42299;35.160;26.100;2022-09-02T05:45:09;14.90;;;8.80;;
56401;SDS011;42299;35.160;26.100;2022-09-02T05:46:34;11.30;;;8.00;;
56401;SDS011;42299;35.160;26.100;2022-09-02T05:47:57;11.38;;;7.22;;
56401;SDS011;42299;35.160;26.100;2022-09-02T05:49:40;13.93;;;7.30;;
56401;SDS011;42299;35.160;26.100;2022-09-02T05:51:04;10.93;;;6.45;;
56401;SDS011;42299;35.160;26.100;2022-09-02T05:52:28;10.65;;;6.03;;
56401;SDS011;42299;35.160;26.100;2022-09-02T05:58:43;11.50;;;4.88;;
56401;SDS011;42299;35.160;26.100;2022-09-02T06:00:08;11.80;;;4.50;;
56401;SDS011;42299;35.160;26.100;2022-09-02T06:01:35;6.63;;;3.97;;
56401;SDS011;42299;35.160;26.100;2022-09-02T06:02:57;6.20;;;3.58;;
56401;SDS011;42299;35.160;26.100;2022-09-02T06:04:25;13.25;;;4.72;;
56401;SDS011;42299;35.160;26.100;2022-09-02T06:05:53;11.75;;;4.30;;
56401;SDS011;42299;35.160;26.100;2022-09-02T06:07:17;7.10;;;3.67;;
56401;SDS011;42299;35.160;26.100;2022-09-02T06:08:42;10.93;;;4.82;;
56401;SDS011;42299;35.160;26.100;2022-09-02T06:10:05;8.88;;;4.15;;
56401;SDS011;42299;35.160;26.100;2022-09-02T06:11:28;9.88;;;4.53;;
56401;SDS011;42299;35.160;26.100;2022-09-02T06:14:16;7.40;;;4.03;;
56401;SDS011;42299;35.160;26.100;2022-09-02T06:15:44;9.80;;;4.50;;
56401;SDS011;42299;35.160;26.100;2022-09-02T06:17:08;7.50;;;3.70;;
56401;SDS011;42299;35.160;26.100;2022-09-02T06:18:41;9.00;;;4.13;;
56401;SDS011;42299;35.160;26.100;2022-09-02T06:20:05;6.93;;;3.83;;
56401;SDS011;42299;35.160;26.100;2022-09-02T06:21:29;8.50;;;3.97;;
56401;SDS011;42299;35.160;26.100;2022-09-02T06:22:52;12.02;;;4.03;;
56401;SDS011;42299;35.160;26.100;2022-09-02T06:24:14;5.63;;;3.45;;
56401;SDS011;42299;35.160;26.100;2022-09-02T06:25:38;10.57;;;3.72;;
56401;SDS011;42299;35.160;26.100;2022-09-02T06:27:05;9.82;;;3.80;;
56401;SDS011;42299;35.160;26.100;2022-09-02T06:28:31;9.68;;;3.75;;
56401;SDS011;42299;35.160;26.100;2022-09-02T06:29:53;10.00;;;3.67;;
56401;SDS011;42299;35.160;26.100;2022-09-02T06:31:20;9.65;;;3.97;;
56401;SDS011;42299;35.160;26.100;2022-09-02T06:32:45;7.75;;;3.78;;
56401;SDS011;42299;35.160;26.100;2022-09-02T06:34:07;8.75;;;3.92;;
56401;SDS011;42299;35.160;26.100;2022-09-02T06:35:35;10.52;;;3.90;;
56401;SDS011;42299;35.160;26.100;2022-09-02T06:36:57;5.88;;;3.20;;
56401;SDS011;42299;35.160;26.100;2022-09-02T06:38:21;8.30;;;3.67;;
56401;SDS011;42299;35.160;26.100;2022-09-02T06:39:45;7.35;;;3.85;;
56401;SDS011;42299;35.160;26.100;2022-09-02T06:41:14;8.57;;;3.33;;
56401;SDS011;42299;35.160;26.100;2022-09-02T06:42:40;7.80;;;3.65;;
56401;SDS011;42299;35.160;26.100;2022-09-02T06:44:13;7.38;;;3.47;;
56401;SDS011;42299;35.160;26.100;2022-09-02T06:45:38;10.65;;;3.72;;
56401;SDS011;42299;35.160;26.100;2022-09-02T06:47:03;10.52;;;3.80;;
56401;SDS011;42299;35.160;26.100;2022-09-02T06:48:27;12.35;;;4.30;;
56401;SDS011;42299;35.160;26.100;2022-09-02T06:49:49;7.97;;;4.03;;
56401;SDS011;42299;35.160;26.100;2022-09-02T06:51:15;6.35;;;3.53;;
56401;SDS011;42299;35.160;26.100;2022-09-02T06:52:42;10.35;;;3.80;;
56401;SDS011;42299;35.160;26.100;2022-09-02T06:54:06;5.90;;;3.25;;
56401;SDS011;42299;35.160;26.100;2022-09-02T06:55:33;8.38;;;3.38;;
56401;SDS011;42299;35.160;26.100;2022-09-02T06:56:56;7.55;;;3.10;;
56401;SDS011;42299;35.160;26.100;2022-09-02T06:58:20;7.07;;;3.30;;
56401;SDS011;42299;35.160;26.100;2022-09-02T06:59:43;6.88;;;3.13;;
56401;SDS011;42299;35.160;26.100;2022-09-02T07:01:07;7.25;;;3.13;;
56401;SDS011;42299;35.160;26.100;2022-09-02T07:02:32;9.82;;;3.45;;
56401;SDS011;42299;35.160;26.100;2022-09-02T07:03:57;8.60;;;3.50;;
56401;SDS011;42299;35.160;26.100;2022-09-02T07:05:37;10.90;;;3.72;;
56401;SDS011;42299;35.160;26.100;2022-09-02T07:06:59;11.25;;;4.22;;
56401;SDS011;42299;35.160;26.100;2022-09-02T07:08:25;10.02;;;3.53;;
56401;SDS011;42299;35.160;26.100;2022-09-02T07:09:47;6.50;;;3.33;;
56401;SDS011;42299;35.160;26.100;2022-09-02T07:11:14;6.65;;;3.22;;
56401;SDS011;42299;35.160;26.100;2022-09-02T07:12:41;8.15;;;3.45;;
56401;SDS011;42299;35.160;26.100;2022-09-02T07:14:07;11.02;;;3.83;;
56401;SDS011;42299;35.160;26.100;2022-09-02T07:15:30;8.80;;;3.67;;
56401;SDS011;42299;35.160;26.100;2022-09-02T07:16:53;6.25;;;3.13;;
56401;SDS011;42299;35.160;26.100;2022-09-02T07:18:26;12.00;;;3.80;;
56401;SDS011;42299;35.160;26.100;2022-09-02T07:19:49;10.63;;;3.25;;
56401;SDS011;42299;35.160;26.100;2022-09-02T07:21:15;9.82;;;3.63;;
56401;SDS011;42299;35.160;26.100;2022-09-02T07:22:39;8.45;;;3.65;;
56401;SDS011;42299;35.160;26.100;2022-09-02T07:24:03;7.00;;;3.90;;
56401;SDS011;42299;35.160;26.100;2022-09-02T07:25:26;10.52;;;3.58;;
56401;SDS011;42299;35.160;26.100;2022-09-02T07:26:49;7.93;;;3.67;;
56401;SDS011;42299;35.160;26.100;2022-09-02T07:28:13;11.70;;;3.85;;
56401;SDS011;42299;35.160;26.100;2022-09-02T07:29:36;9.20;;;3.58;;
56401;SDS011;42299;35.160;26.100;2022-09-02T07:31:00;8.00;;;3.45;;
56401;SDS011;42299;35.160;26.100;2022-09-02T07:32:23;7.25;;;3.10;;
56401;SDS011;42299;35.160;26.100;2022-09-02T07:33:48;8.27;;;3.72;;
56401;SDS011;42299;35.160;26.100;2022-09-02T07:35:11;10.82;;;3.75;;
56401;SDS011;42299;35.160;26.100;2022-09-02T07:36:34;6.38;;;3.30;;
56401;SDS011;42299;35.160;26.100;2022-09-02T07:37:59;8.63;;;3.70;;
56401;SDS011;42299;35.160;26.100;2022-09-02T07:39:22;9.55;;;4.18;;
56401;SDS011;42299;35.160;26.100;2022-09-02T07:40:46;7.18;;;3.63;;
56401;SDS011;42299;35.160;26.100;2022-09-02T07:42:10;11.70;;;3.47;;
56401;SDS011;42299;35.160;26.100;2022-09-02T07:43:34;6.70;;;2.97;;
56401;SDS011;42299;35.160;26.100;2022-09-02T07:44:58;8.60;;;2.92;;
56401;SDS011;42299;35.160;26.100;2022-09-02T07:46:22;9.98;;;3.42;;
56401;SDS011;42299;35.160;26.100;2022-09-02T07:47:45;7.10;;;3.05;;
56401;SDS011;42299;35.160;26.100;2022-09-02T07:49:11;6.13;;;2.92;;
56401;SDS011;42299;35.160;26.100;2022-09-02T07:50:35;7.03;;;3.25;;
56401;SDS011;42299;35.160;26.100;2022-09-02T07:52:02;7.47;;;3.15;;
56401;SDS011;42299;35.160;26.100;2022-09-02T07:53:25;10.75;;;3.75;;
56401;SDS011;42299;35.160;26.100;2022-09-02T07:54:47;6.85;;;3.42;;
56401;SDS011;42299;35.160;26.100;2022-09-02T07:56:11;7.45;;;3.25;;
56401;SDS011;42299;35.160;26.100;2022-09-02T07:57:35;8.57;;;3.72;;
56401;SDS011;42299;35.160;26.100;2022-09-02T07:59:01;14.35;;;4.13;;
56401;SDS011;42299;35.160;26.100;2022-09-02T08:00:24;11.52;;;4.18;;
56401;SDS011;42299;35.160;26.100;2022-09-02T08:01:48;12.57;;;4.65;;
56401;SDS011;42299;35.160;26.100;2022-09-02T08:03:12;9.98;;;3.58;;
56401;SDS011;42299;35.160;26.100;2022-09-02T08:04:43;8.65;;;3.72;;
56401;SDS011;42299;35.160;26.100;2022-09-02T08:06:06;8.20;;;3.75;;
56401;SDS011;42299;35.160;26.100;2022-09-02T08:07:29;8.65;;;3.53;;
56401;SDS011;42299;35.160;26.100;2022-09-02T08:08:52;9.45;;;4.00;;
56401;SDS011;42299;35.160;26.100;2022-09-02T08:10:15;10.23;;;3.67;;
56401;SDS011;42299;35.160;26.100;2022-09-02T08:11:41;9.15;;;3.67;;
56401;SDS011;42299;35.160;26.100;2022-09-02T08:13:06;9.15;;;3.60;;
56401;SDS011;42299;35.160;26.100;2022-09-02T08:14:30;6.32;;;3.60;;
56401;SDS011;42299;35.160;26.100;2022-09-02T08:15:53;7.60;;;3.38;;
56401;SDS011;42299;35.160;26.100;2022-09-02T08:17:16;9.20;;;3.30;;
56401;SDS011;42299;35.160;26.100;2022-09-02T08:18:38;7.30;;;3.38;;
56401;SDS011;42299;35.160;26.100;2022-09-02T08:20:03;10.43;;;4.50;;
56401;SDS011;42299;35.160;26.100;2022-09-02T08:21:27;8.65;;;3.72;;
56401;SDS011;42299;35.160;26.100;2022-09-02T08:22:49;9.73;;;4.15;;
56401;SDS011;42299;35.160;26.100;2022-09-02T08:24:12;8.95;;;3.58;;
56401;SDS011;42299;35.160;26.100;2022-09-02T08:25:35;10.70;;;3.55;;